Time;durP1;ratioP1;P1;durP2;ratioP2;P2;SDS_P1;SDS_P2;PMS_P1;PMS_P2;Temp;Humidity;BMP_temperature;BMP_pressure;BME280_temperature;BME280_humidity;BME280_pressure;Samples;Min_cycle;Max_cycle;Signal;HPM_P1;HPM_P2
2023/05/05 00:01:24;;;;;;;12.45;3.58;;;;;;;12.48;84.28;100494.89;1752354;82;21186;-79
2023/05/05 00:04:31;;;;;;;10.08;3.83;;;;;;;12.43;83.74;100495.97;1752741;81;21206;-79
2023/05/05 00:07:37;;;;;;;9.40;4.12;;;;;;;12.40;83.37;100493.58;1748420;82;21233;-79
2023/05/05 00:10:43;;;;;;;14.40;4.08;;;;;;;12.23;83.49;100498.84;1748517;82;21826;-79
2023/05/05 00:13:48;;;;;;;12.73;4.55;;;;;;;12.22;83.08;100494.41;1747348;82;21246;-79
2023/05/05 00:16:48;;;;;;;16.40;4.53;;;;;;;12.17;83.38;100500.95;1747071;82;21147;-79
2023/05/05 00:19:53;;;;;;;7.92;3.80;;;;;;;12.15;83.56;100494.30;1747336;82;21784;-80
2023/05/05 00:22:59;;;;;;;9.65;4.33;;;;;;;12.13;83.33;100500.98;1747913;82;21264;-80
2023/05/05 00:26:05;;;;;;;7.10;4.50;;;;;;;12.07;83.35;100507.20;1748483;82;21777;-79
2023/05/05 00:29:11;;;;;;;8.93;4.17;;;;;;;12.03;83.42;100501.22;1748487;82;21195;-80
2023/05/05 00:32:18;;;;;;;10.78;3.83;;;;;;;12.01;83.46;100495.92;1748749;82;21163;-79
2023/05/05 00:35:27;;;;;;;7.37;3.83;;;;;;;11.98;83.23;100492.16;1747114;82;21233;-80
2023/05/05 00:38:32;;;;;;;9.15;4.45;;;;;;;11.98;82.56;100495.42;1748265;82;21191;-80
2023/05/05 00:41:37;;;;;;;6.50;3.50;;;;;;;11.97;82.14;100492.36;1748319;82;21924;-78
2023/05/05 00:44:47;;;;;;;8.45;4.03;;;;;;;11.91;81.49;100493.09;1748507;82;21230;-78
2023/05/05 00:48:04;;;;;;;12.90;3.45;;;;;;;11.92;81.14;100497.01;1748322;82;21238;-79
2023/05/05 00:51:10;;;;;;;8.43;3.67;;;;;;;11.89;81.26;100487.77;1748443;82;21237;-78
2023/05/05 00:54:16;;;;;;;9.48;3.30;;;;;;;11.89;79.65;100486.92;1747393;82;21190;-78
2023/05/05 00:57:23;;;;;;;12.80;4.20;;;;;;;11.85;79.23;100480.94;1748335;82;21183;-78
2023/05/05 01:00:29;;;;;;;11.08;3.60;;;;;;;11.83;80.44;100480.27;1747606;82;21232;-78
2023/05/05 01:03:35;;;;;;;5.08;3.47;;;;;;;11.82;80.24;100481.80;1747718;82;21214;-78
2023/05/05 01:07:02;;;;;;;7.45;3.55;;;;;;;11.70;80.59;100477.23;1748130;81;21234;-78
2023/05/05 01:10:32;;;;;;;5.37;3.10;;;;;;;11.68;79.57;100471.09;1727361;81;21994;-78
2023/05/05 01:14:00;;;;;;;7.65;3.98;;;;;;;11.73;78.83;100470.03;1712269;84;21244;-78
2023/05/05 01:17:08;;;;;;;8.30;3.52;;;;;;;11.70;79.31;100470.38;1682589;85;21193;-79
2023/05/05 01:20:41;;;;;;;6.92;3.12;;;;;;;11.71;79.57;100464.70;1696198;84;21804;-78
2023/05/05 01:24:22;;;;;;;5.50;3.55;;;;;;;11.71;79.43;100468.81;1704265;84;21224;-78
2023/05/05 01:27:58;;;;;;;7.75;3.42;;;;;;;11.59;78.27;100465.31;1703346;84;21204;-79
2023/05/05 01:31:31;;;;;;;9.05;3.25;;;;;;;11.55;77.93;100466.18;1714276;83;21240;-79
2023/05/05 01:34:47;;;;;;;7.20;3.60;;;;;;;11.37;79.22;100462.31;1717210;83;21216;-79
2023/05/05 01:38:18;;;;;;;7.83;3.45;;;;;;;11.26;79.73;100467.67;1717409;83;21189;-79
2023/05/05 01:41:35;;;;;;;6.62;3.60;;;;;;;11.20;79.69;100466.17;1718836;83;21200;-79
2023/05/05 01:44:42;;;;;;;9.13;3.20;;;;;;;11.15;79.66;100463.97;1690463;83;21764;-79
2023/05/05 01:47:48;;;;;;;13.65;3.20;;;;;;;11.07;79.78;100461.77;1703562;84;21740;-79
2023/05/05 01:50:54;;;;;;;7.87;3.52;;;;;;;10.97;79.95;100465.55;1702998;84;21546;-79
2023/05/05 01:54:04;;;;;;;9.98;3.80;;;;;;;10.89;80.49;100465.56;1703467;84;21249;-79
2023/05/05 01:57:07;;;;;;;11.28;3.20;;;;;;;10.85;80.91;100459.25;1702331;84;21732;-79
2023/05/05 01:59:58;;;;;;;6.95;4.03;;;;;;;10.77;81.59;100456.00;1703140;84;21278;-79
2023/05/05 02:03:07;;;;;;;10.70;3.67;;;;;;;10.71;82.04;100452.60;1704567;84;21195;-79
2023/05/05 02:06:15;;;;;;;9.63;3.30;;;;;;;10.70;82.22;100456.38;1703827;84;21243;-79
2023/05/05 02:09:20;;;;;;;9.65;4.37;;;;;;;10.66;82.36;100458.59;1711885;84;21199;-78
2023/05/05 02:12:26;;;;;;;6.65;3.67;;;;;;;10.69;82.11;100462.88;1710640;84;21254;-79
2023/05/05 02:15:32;;;;;;;9.08;3.50;;;;;;;10.61;82.09;100461.00;1710554;84;21833;-79
2023/05/05 02:18:38;;;;;;;6.17;3.75;;;;;;;10.55;82.56;100456.23;1710695;84;21750;-79
2023/05/05 02:21:44;;;;;;;15.80;4.15;;;;;;;10.55;82.80;100458.11;1711531;84;22107;-79
2023/05/05 02:24:49;;;;;;;10.13;3.90;;;;;;;10.53;83.00;100450.06;1691202;84;21242;-79
2023/05/05 02:27:55;;;;;;;7.45;3.47;;;;;;;10.53;83.41;100454.67;1711653;84;21182;-79
2023/05/05 02:31:02;;;;;;;10.55;3.80;;;;;;;10.58;83.26;100453.64;1712123;84;21199;-79
2023/05/05 02:34:09;;;;;;;10.35;4.08;;;;;;;10.49;83.87;100449.58;1710602;84;21361;-79
2023/05/05 02:37:18;;;;;;;6.78;3.67;;;;;;;10.59;84.18;100454.01;1710802;84;21286;-79
2023/05/05 02:40:29;;;;;;;5.95;3.90;;;;;;;10.60;84.31;100452.97;1712158;84;21706;-79
2023/05/05 02:43:35;;;;;;;7.60;4.25;;;;;;;10.63;84.91;100457.59;1712224;84;21242;-79
2023/05/05 02:46:43;;;;;;;5.70;3.90;;;;;;;10.70;85.28;100456.38;1710733;84;21262;-79
2023/05/05 02:49:50;;;;;;;4.60;3.55;;;;;;;10.77;85.64;100451.89;1710797;84;21187;-79
2023/05/05 02:52:55;;;;;;;10.43;4.25;;;;;;;10.93;86.39;100453.24;1711865;84;21364;-79
2023/05/05 02:56:07;;;;;;;7.08;3.40;;;;;;;11.27;86.48;100452.09;1710814;84;21211;-79
2023/05/05 02:59:30;;;;;;;12.07;3.95;;;;;;;11.58;85.80;100449.91;1701765;84;21242;-79
2023/05/05 03:02:41;;;;;;;7.08;3.62;;;;;;;11.92;85.59;100454.52;1712278;84;21207;-79
2023/05/05 03:06:07;;;;;;;17.32;4.00;;;;;;;12.25;84.68;100455.66;1711240;84;21915;-79
2023/05/05 03:09:20;;;;;;;18.45;3.70;;;;;;;12.44;84.04;100453.77;1709209;84;21286;-79
2023/05/05 03:12:26;;;;;;;17.80;3.92;;;;;;;12.56;83.80;100461.55;1708920;84;21250;-79
2023/05/05 03:15:36;;;;;;;10.82;3.67;;;;;;;12.63;83.39;100459.78;1710105;84;21792;-78
2023/05/05 03:18:43;;;;;;;15.65;3.60;;;;;;;12.59;83.19;100460.67;1710334;84;21765;-79
2023/05/05 03:21:50;;;;;;;10.25;4.10;;;;;;;12.64;82.99;100471.09;1709985;84;21858;-78
2023/05/05 03:24:58;;;;;;;8.18;3.70;;;;;;;12.59;82.74;100469.42;1710069;84;21238;-78
2023/05/05 03:28:03;;;;;;;8.13;4.12;;;;;;;12.57;82.44;100461.39;1710235;84;21219;-78
2023/05/05 03:31:08;;;;;;;9.80;3.95;;;;;;;12.59;82.32;100469.42;1710212;84;21234;-79
2023/05/05 03:34:17;;;;;;;8.03;4.12;;;;;;;12.58;82.14;100473.21;1690607;84;21209;-78
2023/05/05 03:37:23;;;;;;;10.00;4.08;;;;;;;12.63;81.89;100470.23;1709491;84;21828;-78
2023/05/05 03:40:30;;;;;;;7.70;4.00;;;;;;;12.68;81.69;100469.68;1710165;84;21187;-78
2023/05/05 03:43:38;;;;;;;;;;;;;;;12.74;81.39;100473.89;1711460;84;21242;-79
2023/05/05 03:46:43;;;;;;;7.12;4.00;;;;;;;12.87;81.67;100481.50;1709253;84;20215;-78
2023/05/05 03:49:50;;;;;;;8.00;4.42;;;;;;;13.01;81.58;100492.16;1710084;84;21762;-79
2023/05/05 03:52:55;;;;;;;6.25;3.90;;;;;;;13.07;81.87;100490.55;1709321;84;21274;-78
2023/05/05 03:56:01;;;;;;;7.83;3.92;;;;;;;13.14;82.27;100486.88;1709576;84;21203;-78
2023/05/05 03:59:07;;;;;;;6.35;4.10;;;;;;;13.28;82.68;100492.92;1710228;84;21244;-79
2023/05/05 04:02:13;;;;;;;8.13;3.77;;;;;;;13.50;82.86;100491.13;1710334;84;21206;-78
2023/05/05 04:05:19;;;;;;;9.80;4.35;;;;;;;13.85;82.72;100483.63;1710136;84;21238;-79
2023/05/05 04:08:24;;;;;;;9.33;4.45;;;;;;;14.19;82.49;100484.31;1709368;84;21282;-78
2023/05/05 04:11:30;;;;;;;12.70;4.33;;;;;;;14.54;82.00;100480.68;1697799;84;21828;-79
2023/05/05 04:14:36;;;;;;;9.38;3.85;;;;;;;15.05;81.19;100480.95;1697916;84;21198;-79
2023/05/05 04:17:42;;;;;;;8.78;3.95;;;;;;;15.44;79.74;100474.85;1697867;84;21198;-79
2023/05/05 04:20:47;;;;;;;12.05;3.87;;;;;;;15.65;77.46;100468.92;1697741;84;21187;-79
2023/05/05 04:23:53;;;;;;;11.20;3.33;;;;;;;15.79;75.84;100476.19;1696774;84;21242;-79
2023/05/05 04:26:58;;;;;;;5.53;3.08;;;;;;;15.84;75.10;100480.03;1696951;84;21277;-79
2023/05/05 04:30:04;;;;;;;11.55;3.33;;;;;;;15.90;74.56;100481.09;1698148;84;21972;-79
2023/05/05 04:33:10;;;;;;;8.18;3.42;;;;;;;15.93;74.80;100490.35;1697857;84;21258;-79
2023/05/05 04:36:15;;;;;;;12.33;3.80;;;;;;;16.15;74.29;100492.45;1697545;84;21202;-79
2023/05/05 04:39:21;;;;;;;6.37;2.85;;;;;;;16.28;74.64;100491.63;1697454;84;21226;-78
2023/05/05 04:42:26;;;;;;;8.93;3.65;;;;;;;16.39;73.61;100488.24;1696547;84;21205;-79
2023/05/05 04:45:33;;;;;;;8.68;3.27;;;;;;;16.53;73.06;100489.96;1697730;84;21250;-78
2023/05/05 04:48:38;;;;;;;11.57;3.40;;;;;;;16.67;72.13;100485.30;1697957;84;21202;-79
2023/05/05 04:51:49;;;;;;;36.98;4.62;;;;;;;16.88;71.01;100482.88;1697847;84;21222;-79
2023/05/05 04:54:55;;;;;;;11.93;3.15;;;;;;;17.04;68.74;100483.83;1698026;84;21214;-79
2023/05/05 04:58:00;;;;;;;13.08;2.72;;;;;;;17.21;65.30;100483.37;1696491;84;21234;-79
2023/05/05 05:01:07;;;;;;;8.33;3.10;;;;;;;17.39;64.53;100483.54;1696492;84;22270;-79
2023/05/05 05:04:12;;;;;;;13.93;2.92;;;;;;;17.61;64.00;100483.58;1668687;86;21214;-79
2023/05/05 05:07:19;;;;;;;7.55;3.02;;;;;;;17.77;62.42;100473.97;1667513;86;21257;-79
2023/05/05 05:10:25;;;;;;;6.10;2.77;;;;;;;17.92;61.71;100472.84;1679214;84;21300;-78
2023/05/05 05:13:31;;;;;;;10.43;3.27;;;;;;;17.93;61.14;100464.33;1715748;83;21193;-79
2023/05/05 05:16:37;;;;;;;14.47;2.83;;;;;;;18.01;59.51;100461.28;1706431;83;21983;-80
2023/05/05 05:19:45;;;;;;;7.25;2.60;;;;;;;18.06;57.44;100451.78;1724315;82;21174;-79
2023/05/05 05:22:54;;;;;;;10.40;2.47;;;;;;;17.95;55.79;100453.87;1737796;82;21515;-79
2023/05/05 05:26:04;;;;;;;8.95;2.77;;;;;;;17.84;54.66;100450.44;1703267;83;21745;-79
2023/05/05 05:29:09;;;;;;;8.40;2.85;;;;;;;17.88;54.21;100453.08;1706625;82;21184;-79
2023/05/05 05:32:09;;;;;;;5.35;2.70;;;;;;;18.02;53.76;100455.22;1712378;83;21173;-79
2023/05/05 05:35:15;;;;;;;5.22;2.40;;;;;;;18.08;53.79;100452.42;1705715;82;21180;-79
2023/05/05 05:38:21;;;;;;;5.85;3.05;;;;;;;18.14;53.72;100454.30;1715359;83;21217;-80
2023/05/05 05:41:27;;;;;;;9.90;2.15;;;;;;;18.24;52.50;100461.27;1710508;82;21372;-79
2023/05/05 05:44:33;;;;;;;13.00;2.80;;;;;;;18.36;52.14;100458.11;1714047;82;22183;-80
2023/05/05 05:47:39;;;;;;;6.45;3.00;;;;;;;18.38;51.71;100457.33;1698681;83;21273;-79
2023/05/05 05:50:45;;;;;;;4.45;2.47;;;;;;;18.51;51.07;100462.78;1724920;83;22449;-79
2023/05/05 05:53:51;;;;;;;12.85;3.33;;;;;;;18.45;50.66;100464.23;1720800;83;21218;-80
2023/05/05 05:56:56;;;;;;;9.45;2.50;;;;;;;18.43;51.76;100469.97;1734056;82;22114;-80
2023/05/05 06:00:03;;;;;;;6.75;2.60;;;;;;;18.39;50.17;100471.48;1716725;82;21725;-79
2023/05/05 06:03:10;;;;;;;11.40;2.58;;;;;;;18.45;50.12;100472.00;1716841;83;22364;-79
2023/05/05 06:06:16;;;;;;;8.78;2.30;;;;;;;18.49;50.22;100470.48;1739182;82;21172;-80
2023/05/05 06:09:24;;;;;;;14.93;2.75;;;;;;;18.62;49.64;100466.20;1714354;83;21815;-80
2023/05/05 06:12:29;;;;;;;12.43;3.20;;;;;;;18.81;48.38;100454.66;1704569;82;21486;-80
2023/05/05 06:15:35;;;;;;;13.43;2.70;;;;;;;18.93;47.66;100457.56;1715707;83;21217;-79
2023/05/05 06:18:42;;;;;;;14.55;2.58;;;;;;;19.08;47.55;100450.27;1704845;84;21189;-79
2023/05/05 06:21:48;;;;;;;13.08;3.12;;;;;;;19.31;48.70;100445.44;1716641;83;21202;-79
2023/05/05 06:24:54;;;;;;;15.58;2.60;;;;;;;19.51;47.37;100443.28;1677841;84;21204;-80
2023/05/05 06:28:00;;;;;;;5.55;2.70;;;;;;;19.66;45.95;100439.59;1699140;83;21205;-80
2023/05/05 06:31:05;;;;;;;8.98;2.67;;;;;;;19.88;46.77;100441.88;1708011;83;21206;-80
2023/05/05 06:34:11;;;;;;;7.90;2.70;;;;;;;20.06;45.01;100439.06;1711111;83;21233;-80
2023/05/05 06:37:17;;;;;;;4.08;2.62;;;;;;;20.23;43.14;100439.78;1713273;83;21723;-80
2023/05/05 06:40:22;;;;;;;8.83;3.27;;;;;;;20.38;42.77;100434.11;1726376;82;21256;-80
2023/05/05 06:43:27;;;;;;;10.10;2.60;;;;;;;20.41;42.82;100438.32;1724737;82;21226;-80
2023/05/05 06:46:35;;;;;;;10.38;2.50;;;;;;;20.41;42.01;100438.32;1706877;82;21358;-80
2023/05/05 06:49:41;;;;;;;6.33;2.45;;;;;;;20.46;43.37;100439.00;1703776;82;21200;-80
2023/05/05 06:52:47;;;;;;;5.97;2.90;;;;;;;20.53;43.09;100434.23;1703685;83;21230;-80
2023/05/05 06:55:54;;;;;;;4.78;2.37;;;;;;;20.75;43.76;100426.14;1726099;82;21240;-80
2023/05/05 06:58:53;;;;;;;5.58;3.05;;;;;;;20.75;43.99;100432.57;1728671;82;21262;-80
2023/05/05 07:01:59;;;;;;;8.85;2.42;;;;;;;20.78;42.99;100422.34;1722642;82;21176;-80
2023/05/05 07:05:06;;;;;;;7.72;2.95;;;;;;;20.78;41.52;100426.52;1715722;82;21179;-80
2023/05/05 07:08:12;;;;;;;11.00;2.65;;;;;;;20.82;42.91;100424.95;1708070;82;21274;-80
2023/05/05 07:11:17;;;;;;;5.30;2.15;;;;;;;20.89;41.54;100422.07;1713447;82;21217;-80
2023/05/05 07:14:22;;;;;;;12.53;2.67;;;;;;;20.96;41.34;100418.61;1714765;83;21205;-80
2023/05/05 07:17:27;;;;;;;7.25;2.62;;;;;;;21.02;41.96;100415.39;1726657;83;21193;-80
2023/05/05 07:20:33;;;;;;;4.97;2.60;;;;;;;21.09;41.29;100421.15;1711298;83;21209;-80
2023/05/05 07:23:33;;;;;;;7.47;2.52;;;;;;;21.12;40.99;100414.23;1711245;84;21740;-80
2023/05/05 07:26:37;;;;;;;15.18;3.58;;;;;;;21.11;40.02;100416.17;1720346;83;21256;-80
2023/05/05 07:29:43;;;;;;;7.00;3.12;;;;;;;21.17;40.75;100409.66;1732403;82;21200;-80
2023/05/05 07:32:50;;;;;;;11.90;2.55;;;;;;;21.16;41.14;100406.55;1696465;83;21250;-80
2023/05/05 07:35:55;;;;;;;9.68;2.17;;;;;;;21.29;41.77;100408.78;1713630;83;21173;-80
2023/05/05 07:39:01;;;;;;;6.50;2.47;;;;;;;21.32;40.82;100408.34;1744849;82;21176;-80
2023/05/05 07:42:06;;;;;;;11.97;3.30;;;;;;;21.28;40.01;100405.16;1713309;83;21279;-80
2023/05/05 07:45:14;;;;;;;10.43;3.27;;;;;;;21.19;39.23;100407.47;1682450;85;21218;-80
2023/05/05 07:48:18;;;;;;;6.72;2.98;;;;;;;21.10;40.16;100400.58;1719997;82;21198;-80
2023/05/05 07:51:25;;;;;;;8.30;2.87;;;;;;;21.08;39.63;100405.55;1712102;84;22647;-80
2023/05/05 07:54:32;;;;;;;8.20;2.72;;;;;;;21.00;38.42;100399.52;1711570;84;21214;-80
2023/05/05 07:57:37;;;;;;;6.33;2.95;;;;;;;20.88;38.48;100393.39;1686677;84;21267;-80
2023/05/05 08:00:43;;;;;;;6.60;2.98;;;;;;;20.79;39.35;100394.84;1731364;83;21269;-79
2023/05/05 08:03:50;;;;;;;7.62;3.30;;;;;;;20.80;39.93;100390.16;1718790;83;21184;-79
2023/05/05 08:06:49;;;;;;;9.88;3.08;;;;;;;20.84;41.30;100388.05;1717781;83;21161;-79
2023/05/05 08:09:54;;;;;;;7.83;3.12;;;;;;;20.92;40.33;100387.66;1705268;83;21225;-79
2023/05/05 08:13:01;;;;;;;11.90;3.52;;;;;;;20.99;41.76;100383.37;1715867;83;21230;-79
2023/05/05 08:16:07;;;;;;;6.33;2.77;;;;;;;21.14;41.51;100385.66;1716812;83;21193;-79
2023/05/05 08:19:12;;;;;;;10.60;3.50;;;;;;;21.26;40.79;100381.45;1732450;83;21209;-79
2023/05/05 08:22:19;;;;;;;13.55;3.77;;;;;;;21.34;40.13;100378.33;1732578;82;21194;-79
2023/05/05 08:25:25;;;;;;;10.03;3.47;;;;;;;21.31;40.30;100377.41;1708982;84;21193;-79
2023/05/05 08:28:24;;;;;;;9.60;4.17;;;;;;;21.35;40.96;100377.23;1693507;83;21243;-79
2023/05/05 08:31:18;;;;;;;9.98;3.95;;;;;;;21.40;41.09;100370.38;1722857;83;21247;-79
2023/05/05 08:34:23;;;;;;;;;;;;;;;21.38;40.38;100367.84;1729659;83;21899;-79
2023/05/05 08:37:28;;;;;;;9.80;3.60;;;;;;;21.47;40.45;100371.65;1718604;83;20213;-79
2023/05/05 08:40:39;;;;;;;12.20;4.10;;;;;;;21.49;40.18;100374.47;1736991;82;21172;-79
2023/05/05 08:43:44;;;;;;;11.50;4.50;;;;;;;21.53;40.07;100367.87;1722875;83;21217;-79
2023/05/05 08:46:51;;;;;;;10.13;4.47;;;;;;;21.53;38.96;100361.75;1708625;84;21193;-79
2023/05/05 08:49:58;;;;;;;10.23;4.30;;;;;;;21.67;40.15;100368.72;1723637;82;21208;-79
2023/05/05 08:53:14;;;;;;;10.45;3.75;;;;;;;21.58;40.42;100361.85;1700571;84;21193;-79
2023/05/05 08:56:24;;;;;;;9.95;4.15;;;;;;;21.66;39.07;100363.41;1706482;82;21572;-79
2023/05/05 08:59:30;;;;;;;10.75;4.03;;;;;;;21.59;38.45;100363.53;1700390;83;21223;-79
2023/05/05 09:02:36;;;;;;;11.08;4.62;;;;;;;21.65;38.89;100360.33;1708400;83;21210;-80
2023/05/05 09:05:43;;;;;;;14.05;4.75;;;;;;;21.52;37.21;100358.67;1692308;82;21196;-79
2023/05/05 09:08:50;;;;;;;15.08;4.67;;;;;;;21.42;38.55;100358.47;1714295;83;21241;-80
2023/05/05 09:12:00;;;;;;;7.15;3.87;;;;;;;21.39;39.75;100358.95;1732764;82;21164;-80
2023/05/05 09:15:06;;;;;;;12.75;4.83;;;;;;;21.48;39.14;100355.24;1702046;83;21381;-80
2023/05/05 09:18:13;;;;;;;15.95;7.28;;;;;;;21.56;39.60;100347.91;1765257;79;21182;-79
2023/05/05 09:21:31;;;;;;;17.23;6.80;;;;;;;21.62;38.74;100348.30;1763501;81;22417;-80
2023/05/05 09:24:30;;;;;;;22.13;6.85;;;;;;;21.69;37.96;100351.79;1755955;79;22137;-79
2023/05/05 09:27:28;;;;;;;10.93;6.10;;;;;;;21.65;37.71;100354.22;1754185;81;21225;-79
2023/05/05 09:30:33;;;;;;;12.90;5.35;;;;;;;21.65;38.79;100354.22;1756601;81;21212;-79
2023/05/05 09:33:39;;;;;;;11.25;4.87;;;;;;;21.65;39.11;100348.65;1756763;81;21210;-80
2023/05/05 09:36:55;;;;;;;11.88;5.83;;;;;;;21.79;37.50;100348.35;1759650;81;22312;-79
2023/05/05 09:40:01;;;;;;;14.03;6.10;;;;;;;21.89;36.36;100348.55;1751181;81;21200;-79
2023/05/05 09:43:09;;;;;;;13.83;5.25;;;;;;;21.95;34.85;100341.97;1753475;81;21169;-79
2023/05/05 09:46:15;;;;;;;16.65;6.47;;;;;;;21.95;34.96;100341.41;1754990;81;21248;-79
2023/05/05 09:49:26;;;;;;;15.63;6.15;;;;;;;22.05;37.76;100336.57;1713391;82;21200;-80
2023/05/05 09:52:33;;;;;;;12.25;5.85;;;;;;;22.10;37.51;100335.27;1720473;82;21232;-79
2023/05/05 09:55:38;;;;;;;13.10;6.00;;;;;;;21.95;37.00;100331.66;1758510;81;21196;-79
2023/05/05 09:58:44;;;;;;;16.50;5.87;;;;;;;21.86;35.54;100326.76;1723202;82;21320;-79
2023/05/05 10:01:50;;;;;;;12.75;4.67;;;;;;;21.81;36.72;100334.47;1749678;81;21886;-80
2023/05/05 10:04:57;;;;;;;12.40;5.30;;;;;;;21.86;38.63;100337.34;1750552;81;21462;-79
2023/05/05 10:08:02;;;;;;;10.63;4.97;;;;;;;21.95;38.33;100335.00;1748441;81;21190;-79
2023/05/05 10:11:09;;;;;;;13.28;3.98;;;;;;;22.08;38.46;100339.41;1739869;81;21181;-79
2023/05/05 10:14:16;;;;;;;11.03;4.20;;;;;;;22.14;37.42;100329.52;1764676;79;21193;-79
2023/05/05 10:17:21;;;;;;;9.38;3.47;;;;;;;22.19;37.56;100335.18;1748980;80;21168;-80
2023/05/05 10:20:27;;;;;;;9.10;2.80;;;;;;;22.32;39.14;100328.99;1763982;80;21188;-80
2023/05/05 10:23:49;;;;;;;2.72;1.82;;;;;;;22.38;37.79;100322.39;1756279;80;21704;-80
2023/05/05 10:26:54;;;;;;;6.60;2.08;;;;;;;22.36;38.46;100332.97;1767040;80;21165;-80
2023/05/05 10:30:16;;;;;;;12.03;3.08;;;;;;;22.43;37.61;100326.66;1762973;80;21211;-80
2023/05/05 10:33:24;;;;;;;5.95;1.95;;;;;;;22.48;38.10;100323.95;1763002;80;21190;-80
2023/05/05 10:36:26;;;;;;;6.75;1.70;;;;;;;22.63;34.56;100327.00;1726438;82;21156;-80
2023/05/05 10:39:25;;;;;;;5.47;1.40;;;;;;;22.54;35.22;100320.72;1762733;80;21196;-80
2023/05/05 10:42:19;;;;;;;3.40;1.57;;;;;;;22.51;36.50;100316.48;1770039;80;21700;-79
2023/05/05 10:45:05;;;;;;;1.87;0.90;;;;;;;22.53;36.93;100319.84;1768666;80;21307;-79
2023/05/05 10:47:57;;;;;;;3.60;1.07;;;;;;;22.70;36.82;100312.86;1762926;80;22138;-79
2023/05/05 10:50:48;;;;;;;1.60;0.95;;;;;;;22.57;36.87;100312.66;1771515;80;21704;-79
2023/05/05 10:54:01;;;;;;;5.92;1.40;;;;;;;22.61;36.34;100312.45;1765843;80;21193;-79
2023/05/05 10:57:07;;;;;;;2.95;1.30;;;;;;;22.61;35.63;100314.40;1679414;84;21185;-79
2023/05/05 11:00:16;;;;;;;2.15;1.40;;;;;;;22.49;34.80;100313.64;1767658;79;21253;-79
2023/05/05 11:03:27;;;;;;;3.02;1.20;;;;;;;22.45;36.29;100309.15;1767723;80;21740;-79
2023/05/05 11:06:33;;;;;;;2.70;1.30;;;;;;;22.47;36.04;100312.52;1769900;80;21710;-79
2023/05/05 11:09:41;;;;;;;2.08;1.15;;;;;;;22.38;34.82;100302.89;1770661;80;21149;-79
2023/05/05 11:13:10;;;;;;;1.60;1.00;;;;;;;22.36;36.07;100299.53;1730122;82;21200;-79
2023/05/05 11:16:50;;;;;;;5.30;1.40;;;;;;;22.27;36.05;100298.27;1778375;80;21221;-79
2023/05/05 11:19:56;;;;;;;6.10;1.30;;;;;;;22.36;36.90;100305.09;1767168;80;21248;-79
2023/05/05 11:23:14;;;;;;;2.27;1.20;;;;;;;22.40;36.73;100293.75;1769892;80;21216;-79
2023/05/05 11:26:20;;;;;;;3.35;1.32;;;;;;;22.44;34.99;100290.20;1757394;80;21180;-79
2023/05/05 11:29:26;;;;;;;2.83;1.20;;;;;;;22.57;33.64;100289.52;1761467;80;22532;-79
2023/05/05 11:32:32;;;;;;;7.03;1.10;;;;;;;22.50;33.09;100286.93;1774822;80;21244;-79
2023/05/05 11:36:05;;;;;;;3.42;1.02;;;;;;;22.58;34.17;100282.84;1779996;80;21176;-79
2023/05/05 11:39:48;;;;;;;5.33;1.35;;;;;;;22.69;35.95;100288.88;1775683;80;21256;-79
2023/05/05 11:42:54;;;;;;;3.05;1.20;;;;;;;22.78;35.13;100278.14;1738815;80;21189;-80
2023/05/05 11:46:20;;;;;;;3.12;1.57;;;;;;;22.78;35.60;100275.34;1760475;80;21216;-80
2023/05/05 11:49:36;;;;;;;3.22;1.00;;;;;;;22.87;36.73;100276.03;1760349;80;21192;-80
2023/05/05 11:52:43;;;;;;;3.65;0.90;;;;;;;23.03;35.63;100266.50;1708081;82;21216;-80
2023/05/05 11:55:48;;;;;;;3.30;1.20;;;;;;;23.16;35.01;100267.50;1711450;83;21335;-80
2023/05/05 11:58:53;;;;;;;4.35;1.40;;;;;;;23.24;34.49;100262.00;1698518;83;21252;-80
2023/05/05 12:01:59;;;;;;;3.75;1.12;;;;;;;23.45;36.14;100263.93;1718246;83;21184;-80
2023/05/05 12:05:06;;;;;;;4.85;1.60;;;;;;;23.64;36.53;100255.51;1728446;83;21214;-80
2023/05/05 12:08:13;;;;;;;2.95;0.82;;;;;;;23.86;35.24;100257.41;1715595;83;21190;-80
2023/05/05 12:11:20;;;;;;;1.37;0.90;;;;;;;24.08;36.56;100254.50;1727055;83;21485;-80
2023/05/05 12:14:25;;;;;;;2.58;1.02;;;;;;;24.12;36.47;100252.30;1731807;82;21204;-80
2023/05/05 12:17:30;;;;;;;4.67;1.10;;;;;;;23.98;35.83;100247.72;1711047;83;21194;-80
2023/05/05 12:20:40;;;;;;;4.05;1.10;;;;;;;23.95;36.63;100248.27;1708326;82;21341;-80
2023/05/05 12:23:46;;;;;;;4.65;1.47;;;;;;;24.03;36.10;100242.72;1717937;83;21583;-79
2023/05/05 12:26:53;;;;;;;2.22;1.27;;;;;;;24.09;35.42;100237.48;1695321;82;21184;-79
2023/05/05 12:29:58;;;;;;;4.70;1.30;;;;;;;24.09;37.49;100238.02;1695134;84;21243;-79
2023/05/05 12:33:11;;;;;;;4.60;1.05;;;;;;;23.97;35.18;100232.63;1709676;83;21249;-79
2023/05/05 12:36:17;;;;;;;3.90;0.90;;;;;;;23.89;35.07;100231.71;1688665;82;21251;-79
2023/05/05 12:39:23;;;;;;;1.55;0.95;;;;;;;23.77;34.40;100219.89;1712485;83;21209;-79
2023/05/05 12:42:29;;;;;;;9.38;1.32;;;;;;;23.70;34.90;100215.91;1706520;82;21197;-79
2023/05/05 12:45:35;;;;;;;1.70;1.10;;;;;;;23.75;33.85;100215.11;1708581;84;21200;-79
2023/05/05 12:48:42;;;;;;;2.45;1.05;;;;;;;23.73;32.54;100213.16;1724288;83;21198;-79
2023/05/05 12:52:00;;;;;;;4.37;1.30;;;;;;;23.59;32.51;100207.13;1733644;82;21182;-79
2023/05/05 12:55:06;;;;;;;2.55;0.88;;;;;;;23.62;32.77;100205.18;1732003;83;21244;-79
2023/05/05 12:58:12;;;;;;;4.95;0.98;;;;;;;23.51;31.44;100204.25;1711824;84;22021;-79
2023/05/05 13:01:18;;;;;;;2.70;1.10;;;;;;;23.58;31.32;100201.27;1718860;83;21241;-80
2023/05/05 13:04:23;;;;;;;5.92;1.12;;;;;;;23.42;32.20;100196.06;1732630;82;21232;-79
2023/05/05 13:07:30;;;;;;;1.67;1.07;;;;;;;23.38;32.54;100198.56;1703631;83;21247;-79
2023/05/05 13:10:36;;;;;;;4.80;0.90;;;;;;;23.28;33.40;100198.98;1709096;83;21209;-79
2023/05/05 13:13:42;;;;;;;2.17;1.15;;;;;;;23.08;32.71;100200.45;1732556;82;21177;-79
2023/05/05 13:16:48;;;;;;;2.65;1.30;;;;;;;23.00;32.45;100195.88;1705332;82;21201;-79
2023/05/05 13:19:54;;;;;;;2.37;0.93;;;;;;;23.08;33.09;100199.06;1715289;82;21827;-79
2023/05/05 13:23:04;;;;;;;2.20;1.05;;;;;;;22.87;33.73;100192.94;1750396;81;21245;-79
2023/05/05 13:26:10;;;;;;;5.33;1.40;;;;;;;22.89;33.56;100192.98;1719074;82;21759;-79
2023/05/05 13:29:11;;;;;;;7.20;1.37;;;;;;;22.69;34.27;100193.55;1755554;81;21160;-79
2023/05/05 13:32:04;;;;;;;2.37;1.02;;;;;;;22.59;34.68;100185.05;1760543;81;21213;-79
2023/05/05 13:34:50;;;;;;;2.20;1.00;;;;;;;22.58;34.07;100188.91;1721064;82;21192;-79
2023/05/05 13:37:45;;;;;;;2.80;1.00;;;;;;;22.60;33.84;100185.89;1754523;81;21153;-79
2023/05/05 13:40:52;;;;;;;4.53;1.00;;;;;;;22.33;33.63;100182.45;1762039;81;21164;-79
2023/05/05 13:43:58;;;;;;;5.28;1.05;;;;;;;22.36;33.26;100175.53;1720877;82;21232;-79
2023/05/05 13:47:04;;;;;;;3.92;0.82;;;;;;;22.43;34.15;100175.63;1756131;81;21788;-80
2023/05/05 13:50:19;;;;;;;2.17;0.78;;;;;;;22.40;33.72;100183.67;1747771;81;21194;-79
2023/05/05 13:53:25;;;;;;;2.83;0.90;;;;;;;22.43;33.20;100178.41;1753282;81;21235;-79
2023/05/05 13:56:31;;;;;;;3.17;1.10;;;;;;;22.25;33.79;100176.47;1750171;81;21204;-79
2023/05/05 13:59:45;;;;;;;5.05;1.10;;;;;;;22.33;34.46;100169.07;1810539;76;22242;-81
2023/05/05 14:02:51;;;;;;;4.53;1.10;;;;;;;22.38;35.41;100169.14;1784481;80;21232;-86
2023/05/05 14:05:58;;;;;;;2.52;1.25;;;;;;;22.27;35.70;100164.54;1744052;81;21157;-85
2023/05/05 14:09:04;;;;;;;2.95;1.20;;;;;;;22.29;35.66;100163.72;1745570;82;21275;-79
2023/05/05 14:12:10;;;;;;;5.58;1.77;;;;;;;22.27;35.45;100172.89;1738980;81;21204;-85
2023/05/05 14:15:16;;;;;;;5.85;1.32;;;;;;;22.19;34.87;100166.65;1747650;80;21184;-85
2023/05/05 14:18:22;;;;;;;6.03;1.67;;;;;;;22.15;35.24;100161.30;1744749;81;21204;-80
2023/05/05 14:21:26;;;;;;;3.37;1.30;;;;;;;22.13;36.72;100157.94;1746325;82;21765;-86
2023/05/05 14:24:32;;;;;;;1.77;1.30;;;;;;;22.08;37.03;100159.77;1747417;80;21188;-86
2023/05/05 14:27:37;;;;;;;4.37;1.17;;;;;;;21.97;37.67;100163.48;1748832;80;21137;-79
2023/05/05 14:30:43;;;;;;;3.05;1.12;;;;;;;21.97;37.33;100152.34;1743185;80;21192;-80